createdAt,value
2022-09-03T00:00:43.305Z,100932.06
2022-09-03T00:03:23.370Z,100937.28
2022-09-03T00:06:08.422Z,100922.66
2022-09-03T00:08:42.897Z,100937.25
2022-09-03T00:11:18.954Z,100931.28
2022-09-03T00:13:54.063Z,100918.44
2022-09-03T00:16:29.646Z,100928.69
2022-09-03T00:19:02.781Z,100918.41
2022-09-03T00:21:42.657Z,100930.44
2022-09-03T00:24:16.709Z,100920.13
2022-09-03T00:26:49.395Z,100920.97
2022-09-03T00:29:23.896Z,100916.75
2022-09-03T00:31:57.680Z,100900.47
2022-09-03T00:34:32.609Z,100914.22
2022-09-03T00:37:05.444Z,100921.09
2022-09-03T00:39:36.142Z,100923.66
2022-09-03T00:42:21.621Z,100923.66
2022-09-03T00:45:06.461Z,100926.28
2022-09-03T00:47:45.789Z,100921.97
2022-09-03T00:50:23.654Z,100924.56
2022-09-03T00:53:03.574Z,100910.84
2022-09-03T00:55:47.425Z,100903.13
2022-09-03T00:58:53.033Z,100919.44
2022-09-03T01:01:28.060Z,100922.00
2022-09-03T01:04:10.325Z,100924.59
2022-09-03T01:06:48.254Z,100907.44
2022-09-03T01:09:44.304Z,100920.31
2022-09-03T01:12:22.262Z,100920.31
2022-09-03T01:15:02.176Z,100915.16
2022-09-03T01:17:46.114Z,100916.88
2022-09-03T01:20:37.837Z,100917.75
2022-09-03T01:23:42.417Z,100916.88
2022-09-03T01:26:40.835Z,100916.88
2022-09-03T01:29:22.271Z,100923.75
2022-09-03T01:32:02.919Z,100925.47
2022-09-03T01:34:45.805Z,100916.88
2022-09-03T01:37:23.549Z,100925.44
2022-09-03T01:40:04.890Z,100933.16
2022-09-03T01:42:43.940Z,100927.13
2022-09-03T01:45:40.385Z,100930.53
2022-09-03T01:48:35.491Z,100928.81
2022-09-03T01:51:13.751Z,100937.41
2022-09-03T01:54:06.025Z,100926.25
2022-09-03T01:56:59.382Z,100934.84
2022-09-03T01:59:34.307Z,100932.25
2022-09-03T02:02:11.028Z,100921.09
2022-09-03T02:04:40.787Z,100921.94
2022-09-03T02:07:10.574Z,100923.66
2022-09-03T02:09:40.234Z,100925.28
2022-09-03T02:12:15.774Z,100924.44
2022-09-03T02:14:45.922Z,100908.09
2022-09-03T02:17:18.420Z,100909.84
2022-09-03T02:19:48.241Z,100930.47
2022-09-03T02:22:17.971Z,100929.63
2022-09-03T02:24:47.678Z,100935.66
2022-09-03T02:27:18.045Z,100930.47
2022-09-03T02:29:47.731Z,100928.81
2022-09-03T02:32:20.049Z,100933.97
2022-09-03T02:34:49.761Z,100881.53
2022-09-03T02:37:21.371Z,100925.41
2022-09-03T02:39:52.112Z,100904.72
2022-09-03T02:42:22.201Z,100929.66
2022-09-03T02:44:56.339Z,100927.09
2022-09-03T02:47:33.990Z,100924.47
2022-09-03T02:50:03.638Z,100930.44
2022-09-03T02:52:33.308Z,100925.25
2022-09-03T02:55:03.003Z,100915.75
2022-09-03T02:57:32.690Z,100922.69
2022-09-03T03:00:02.332Z,100926.97
2022-09-03T03:02:34.621Z,100927.00
2022-09-03T03:05:04.485Z,100914.88
2022-09-03T03:07:39.653Z,100925.22
2022-09-03T03:10:10.730Z,100919.19
2022-09-03T03:12:40.397Z,100913.16
2022-09-03T03:15:10.676Z,100923.47
2022-09-03T03:17:42.956Z,100918.34
2022-09-03T03:20:13.561Z,100918.31
2022-09-03T03:22:43.237Z,100922.59
2022-09-03T03:25:13.016Z,100923.44
2022-09-03T03:27:43.384Z,100924.28
2022-09-03T03:30:14.966Z,100916.59
2022-09-03T03:32:47.400Z,100924.31
2022-09-03T03:35:17.282Z,100923.47
2022-09-03T03:37:46.966Z,100905.44
2022-09-03T03:40:17.073Z,100921.78
2022-09-03T03:42:46.838Z,100911.47
2022-09-03T03:45:16.542Z,100925.16
2022-09-03T03:47:48.866Z,100900.28
2022-09-03T03:50:19.412Z,100930.28
2022-09-03T03:52:49.062Z,100930.22
2022-09-03T03:55:18.828Z,100925.03
2022-09-03T03:57:48.510Z,100919.81
2022-09-03T04:00:19.381Z,100923.28
2022-09-03T04:02:51.687Z,100917.97
2022-09-03T04:05:23.185Z,100918.00
2022-09-03T04:07:53.743Z,100920.59
2022-09-03T04:10:23.422Z,100913.59
2022-09-03T04:12:56.666Z,100913.72
2022-09-03T04:15:26.332Z,100913.69
2022-09-03T04:18:00.703Z,100919.59
2022-09-03T04:20:31.023Z,100909.28
2022-09-03T04:23:03.512Z,100860.34
2022-09-03T04:25:33.718Z,100913.69
2022-09-03T04:28:03.929Z,100896.41
2022-09-03T04:30:33.699Z,100916.19
2022-09-03T04:33:06.485Z,100893.88
2022-09-03T04:35:45.883Z,100916.16
2022-09-03T04:38:15.664Z,100900.72
2022-09-03T04:40:45.766Z,100905.00
2022-09-03T04:43:15.435Z,100918.66
2022-09-03T04:45:45.170Z,100908.31
2022-09-03T04:48:17.478Z,100911.78
2022-09-03T04:50:47.174Z,100909.97
2022-09-03T04:53:16.971Z,100917.69
2022-09-03T04:55:46.642Z,100913.53
2022-09-03T04:58:16.336Z,100855.97
2022-09-03T05:00:46.158Z,100903.25
2022-09-03T05:03:18.453Z,100917.84
2022-09-03T05:05:55.160Z,100907.53
2022-09-03T05:08:25.914Z,100918.75
2022-09-03T05:11:01.975Z,100912.03
2022-09-03T05:13:31.665Z,100921.31
2022-09-03T05:16:05.948Z,100919.69
2022-09-03T05:18:38.593Z,100917.13
2022-09-03T05:21:09.751Z,100897.28
2022-09-03T05:23:40.604Z,100912.75
2022-09-03T05:26:12.530Z,100914.44
2022-09-03T05:28:43.813Z,100922.19
2022-09-03T05:31:15.784Z,100914.47
2022-09-03T05:33:50.031Z,100914.59
2022-09-03T05:36:22.382Z,100914.63
2022-09-03T05:38:54.247Z,100905.22
2022-09-03T05:41:24.949Z,100912.22
2022-09-03T05:43:56.763Z,100912.25
2022-09-03T05:46:30.259Z,100914.03
2022-09-03T05:49:03.897Z,100913.16
2022-09-03T05:51:34.553Z,100908.03
2022-09-03T05:54:05.407Z,100918.44
2022-09-03T05:56:36.302Z,100918.47
2022-09-03T05:59:09.388Z,100917.56
2022-09-03T06:01:40.357Z,100909.03
2022-09-03T06:04:14.349Z,100904.81
2022-09-03T06:06:46.206Z,100918.59
2022-09-03T06:09:18.177Z,100913.44
2022-09-03T06:11:50.145Z,100920.31
2022-09-03T06:14:20.841Z,100921.16
2022-09-03T06:16:53.092Z,100921.16
2022-09-03T06:19:25.653Z,100920.28
2022-09-03T06:21:55.478Z,100910.84
2022-09-03T06:24:27.970Z,100901.41
2022-09-03T06:26:58.315Z,100911.63
2022-09-03T06:29:29.085Z,100918.41
2022-09-03T06:31:59.594Z,100906.31
2022-09-03T06:34:31.969Z,100912.09
2022-09-03T06:37:01.805Z,100921.38
2022-09-03T06:39:31.713Z,100870.97
2022-09-03T06:42:01.490Z,100926.88
2022-09-03T06:44:38.301Z,100926.81
2022-09-03T06:47:08.267Z,100896.72
2022-09-03T06:49:40.766Z,100910.44
2022-09-03T06:52:10.716Z,100928.41
2022-09-03T06:54:41.430Z,100921.53
2022-09-03T06:57:11.089Z,100926.06
2022-09-03T06:59:40.812Z,100927.75
2022-09-03T07:02:10.651Z,100928.72
2022-09-03T07:04:44.220Z,100921.91
2022-09-03T07:07:14.150Z,100933.09
2022-09-03T07:09:47.735Z,100921.13
2022-09-03T07:12:19.372Z,100927.13
2022-09-03T07:14:51.104Z,100922.03
2022-09-03T07:17:21.047Z,100923.72
2022-09-03T07:19:53.365Z,100919.44
2022-09-03T07:22:23.059Z,100932.28
2022-09-03T07:25:02.080Z,100924.50
2022-09-03T07:27:31.780Z,100919.31
2022-09-03T07:30:03.541Z,100925.31
2022-09-03T07:32:33.278Z,100908.94
2022-09-03T07:35:05.630Z,100925.25
2022-09-03T07:37:36.413Z,100926.91
2022-09-03T07:40:07.006Z,100914.09
2022-09-03T07:42:38.525Z,100927.75
2022-09-03T07:45:10.831Z,100908.72
2022-09-03T07:47:40.993Z,100913.03
2022-09-03T07:50:16.283Z,100914.72
2022-09-03T07:52:46.022Z,100907.81
2022-09-03T07:55:16.199Z,100918.13
2022-09-03T07:57:45.946Z,100928.47
2022-09-03T08:00:17.855Z,100929.28
2022-09-03T08:02:47.609Z,100920.59
2022-09-03T08:05:21.459Z,100931.75
2022-09-03T08:07:51.446Z,100929.25
2022-09-03T08:10:22.767Z,100930.88
2022-09-03T08:12:52.502Z,100909.44
2022-09-03T08:15:22.245Z,100938.56
2022-09-03T08:17:52.200Z,100930.75
2022-09-03T08:20:24.522Z,100923.81
2022-09-03T08:22:54.211Z,100928.00
2022-09-03T08:25:23.955Z,100927.88
2022-09-03T08:27:54.146Z,100931.22
2022-09-03T08:30:25.123Z,100932.03
2022-09-03T08:32:54.903Z,100924.22
2022-09-03T08:35:27.234Z,100913.81
2022-09-03T08:37:57.140Z,100930.88
2022-09-03T08:40:27.163Z,100937.91
2022-09-03T08:43:11.537Z,100930.03
2022-09-03T08:45:42.110Z,100930.88
2022-09-03T08:48:16.846Z,100924.59
2022-09-03T08:50:59.247Z,100925.38
2022-09-03T08:53:38.497Z,100911.56
2022-09-03T08:56:13.165Z,100936.09
2022-09-03T08:58:44.929Z,100929.88
2022-09-03T09:01:24.946Z,100918.03
2022-09-03T09:04:08.002Z,100929.91
2022-09-03T09:06:48.957Z,100932.34
2022-09-03T09:09:28.078Z,100943.41
2022-09-03T09:12:08.008Z,100916.94
2022-09-03T09:14:42.693Z,100931.16
2022-09-03T09:17:31.256Z,100913.94
2022-09-03T09:20:10.199Z,100920.72
2022-09-03T09:22:47.332Z,100895.47
2022-09-03T09:25:20.771Z,100907.91
2022-09-03T09:27:56.151Z,100914.50
2022-09-03T09:30:25.921Z,100900.56
2022-09-03T09:32:56.257Z,100902.03
2022-09-03T09:35:27.023Z,100906.41
2022-09-03T09:38:01.100Z,100889.88
2022-09-03T09:40:36.032Z,100890.53
2022-09-03T09:43:07.759Z,100894.84
2022-09-03T09:45:40.103Z,100874.22
2022-09-03T09:48:20.610Z,100891.22
2022-09-03T09:50:50.473Z,100890.13
2022-09-03T09:53:22.840Z,100885.28
2022-09-03T09:55:55.028Z,100885.44
2022-09-03T09:58:26.537Z,100878.28
2022-09-03T10:01:08.250Z,100878.13
2022-09-03T10:03:38.321Z,100879.03
2022-09-03T10:06:23.052Z,100881.38
2022-09-03T10:08:56.103Z,100815.53
2022-09-03T10:11:27.975Z,100833.16
2022-09-03T10:14:00.872Z,100874.31
2022-09-03T10:16:36.660Z,100860.09
2022-09-03T10:19:14.814Z,100850.59
2022-09-03T10:21:49.933Z,100867.25
2022-09-03T10:24:39.622Z,100867.84
2022-09-03T10:27:15.618Z,100846.50
2022-09-03T10:29:45.629Z,100873.78
2022-09-03T10:32:37.953Z,100876.09
2022-09-03T10:35:21.877Z,100865.53
2022-09-03T10:37:58.133Z,100865.19
2022-09-03T10:40:38.045Z,100858.44
2022-09-03T10:43:32.645Z,100844.44
2022-09-03T10:46:06.604Z,100812.78
2022-09-03T10:49:02.923Z,100857.81
2022-09-03T10:51:38.179Z,100852.81
2022-09-03T10:54:24.374Z,100850.03
2022-09-03T10:57:06.215Z,100848.94
2022-09-03T10:59:51.331Z,100851.50
2022-09-03T11:02:36.384Z,100833.41
2022-09-03T11:05:10.421Z,100846.00
2022-09-03T11:07:45.172Z,100835.28
2022-09-03T11:10:21.390Z,100836.13
2022-09-03T11:13:05.522Z,100825.00
2022-09-03T11:15:41.679Z,100836.63
2022-09-03T11:18:19.752Z,100840.56
2022-09-03T11:20:53.725Z,100827.63
2022-09-03T11:23:31.980Z,100823.34
2022-09-03T11:26:05.779Z,100788.06
2022-09-03T11:28:46.971Z,100817.19
2022-09-03T11:31:26.911Z,100814.34
2022-09-03T11:34:02.936Z,100812.44
2022-09-03T11:36:44.738Z,100812.59
2022-09-03T11:39:25.224Z,100792.94
2022-09-03T11:42:07.196Z,100818.63
2022-09-03T11:44:51.629Z,100808.28
2022-09-03T11:47:26.248Z,100804.22
2022-09-03T11:50:10.200Z,100801.38
2022-09-03T11:52:42.292Z,100792.00
2022-09-03T11:55:12.023Z,100780.50
2022-09-03T11:57:45.585Z,100788.16
2022-09-03T12:00:22.726Z,100793.47
2022-09-03T12:02:59.373Z,100789.44
2022-09-03T12:05:39.617Z,100780.06
2022-09-03T12:08:39.033Z,100783.38
2022-09-03T12:11:26.664Z,100779.84
2022-09-03T12:14:04.895Z,100786.03
2022-09-03T12:16:51.546Z,100762.63
2022-09-03T12:19:30.119Z,100788.25
2022-09-03T12:22:04.634Z,100771.34
2022-09-03T12:24:38.310Z,100778.44
2022-09-03T12:27:12.103Z,100763.53
2022-09-03T12:30:00.075Z,100774.66
2022-09-03T12:32:37.361Z,100780.00
2022-09-03T12:38:12.023Z,100777.06
2022-09-03T12:43:38.437Z,100756.03
2022-09-03T12:46:17.753Z,100770.84
2022-09-03T12:51:51.220Z,100756.28
2022-09-03T12:54:24.348Z,100744.59
2022-09-03T12:56:59.202Z,100759.91
2022-09-03T12:59:32.046Z,100758.38
2022-09-03T13:02:07.923Z,100725.28
2022-09-03T13:04:43.054Z,100721.38
2022-09-03T13:07:19.221Z,100753.78
2022-09-03T13:09:50.591Z,100747.69
2022-09-03T13:12:33.309Z,100751.47
2022-09-03T13:15:13.156Z,100750.22
2022-09-03T13:18:00.455Z,100746.00
2022-09-03T13:20:50.730Z,100756.97
2022-09-03T13:23:48.883Z,100751.03
2022-09-03T13:26:30.407Z,100756.06
2022-09-03T13:29:26.546Z,100752.78
2022-09-03T13:32:06.358Z,100739.06
2022-09-03T13:34:41.454Z,100743.41
2022-09-03T13:37:31.381Z,100754.00
2022-09-03T13:40:02.666Z,100745.41
2022-09-03T13:42:39.776Z,100726.28
2022-09-03T13:45:24.063Z,100746.28
2022-09-03T13:48:14.721Z,100753.63
2022-09-03T13:50:50.693Z,100743.91
2022-09-03T13:53:43.684Z,100750.63
2022-09-03T13:56:31.139Z,100740.41
2022-09-03T13:59:08.731Z,100726.06
2022-09-03T14:02:00.809Z,100750.72
2022-09-03T14:04:37.400Z,100748.34
2022-09-03T14:07:14.534Z,100753.00
2022-09-03T14:09:57.230Z,100737.13
2022-09-03T14:12:37.440Z,100747.22
2022-09-03T14:15:14.563Z,100742.66
2022-09-03T14:17:49.895Z,100750.25
2022-09-03T14:20:26.186Z,100740.91
2022-09-03T14:23:02.217Z,100747.88
2022-09-03T14:25:35.176Z,100741.56
2022-09-03T14:28:23.507Z,100742.56
2022-09-03T14:31:04.704Z,100735.28
2022-09-03T14:33:45.595Z,100742.22
2022-09-03T14:36:24.440Z,100739.72
2022-09-03T14:39:26.774Z,100707.97
2022-09-03T14:42:26.314Z,100718.81
2022-09-03T14:45:21.403Z,100734.13
2022-09-03T14:48:05.063Z,100739.06
2022-09-03T14:50:55.019Z,100719.13
2022-09-03T14:53:44.515Z,100741.31
2022-09-03T14:56:27.662Z,100717.91
2022-09-03T14:59:22.277Z,100751.63
2022-09-03T15:02:09.336Z,100748.66
2022-09-03T15:04:59.422Z,100742.53
2022-09-03T15:07:37.558Z,100743.88
2022-09-03T15:10:21.564Z,100725.31
2022-09-03T15:12:54.495Z,100726.53
2022-09-03T15:15:33.737Z,100736.44
2022-09-03T15:18:16.493Z,100723.94
2022-09-03T15:20:52.762Z,100737.94
2022-09-03T15:23:44.511Z,100732.38
2022-09-03T15:26:50.058Z,100719.03
2022-09-03T15:29:47.571Z,100738.44
2022-09-03T15:32:33.772Z,100745.53
2022-09-03T15:35:19.649Z,100739.50
2022-09-03T15:37:51.868Z,100718.38
2022-09-03T15:40:31.579Z,100732.09
2022-09-03T15:43:09.009Z,100715.66
2022-09-03T15:45:43.309Z,100738.91
2022-09-03T15:48:33.543Z,100735.84
2022-09-03T15:51:14.977Z,100733.03
2022-09-03T15:53:53.111Z,100748.69
2022-09-03T15:56:28.248Z,100707.16
2022-09-03T15:59:06.362Z,100712.97
2022-09-03T16:01:42.253Z,100753.41
2022-09-03T16:04:36.499Z,100757.06
2022-09-03T16:07:13.758Z,100740.38
2022-09-03T16:10:20.703Z,100729.78
2022-09-03T16:12:59.703Z,100759.25
2022-09-03T16:15:32.209Z,100737.09
2022-09-03T16:18:09.409Z,100754.84
2022-09-03T16:20:46.602Z,100748.59
2022-09-03T16:23:23.950Z,100760.47
2022-09-03T16:26:00.703Z,100764.19
2022-09-03T16:28:35.657Z,100759.75
2022-09-03T16:31:18.421Z,100768.38
2022-09-03T16:33:58.623Z,100748.78
2022-09-03T16:36:46.351Z,100768.22
2022-09-03T16:39:28.541Z,100765.09
2022-09-03T16:42:09.846Z,100774.88
2022-09-03T16:44:53.772Z,100760.38
2022-09-03T16:47:36.287Z,100768.59
2022-09-03T16:50:16.959Z,100772.44
2022-09-03T16:53:10.015Z,100770.03
2022-09-03T16:55:59.134Z,100761.06
2022-09-03T16:58:38.972Z,100780.19
2022-09-03T17:01:21.958Z,100759.31
2022-09-03T17:04:22.179Z,100774.81
2022-09-03T17:07:04.897Z,100772.22
2022-09-03T17:09:55.605Z,100761.88
2022-09-03T17:12:34.578Z,100781.75
2022-09-03T17:15:33.904Z,100780.16
2022-09-03T17:18:22.851Z,100768.19
2022-09-03T17:21:13.418Z,100788.97
2022-09-03T17:24:04.687Z,100777.22
2022-09-03T17:26:50.420Z,100791.84
2022-09-03T17:29:36.176Z,100797.53
2022-09-03T17:32:23.398Z,100789.09
2022-09-03T17:35:08.698Z,100789.16
2022-09-03T17:37:53.027Z,100791.84
2022-09-03T17:40:31.366Z,100794.63
2022-09-03T17:43:15.318Z,100799.97
2022-09-03T17:45:54.668Z,100782.00
2022-09-03T17:48:47.255Z,100798.16
2022-09-03T17:51:32.525Z,100809.09
2022-09-03T17:54:08.821Z,100794.38
2022-09-03T17:56:48.132Z,100806.59
2022-09-03T17:59:39.225Z,100818.50
2022-09-03T18:02:20.607Z,100821.31
2022-09-03T18:04:59.020Z,100795.91
2022-09-03T18:07:34.131Z,100803.69
2022-09-03T18:10:18.900Z,100814.13
2022-09-03T18:13:03.153Z,100827.78
2022-09-03T18:15:42.273Z,100826.28
2022-09-03T18:18:19.017Z,100817.91
2022-09-03T18:21:24.063Z,100840.44
2022-09-03T18:24:15.234Z,100824.34
2022-09-03T18:27:03.010Z,100838.47
2022-09-03T18:29:54.467Z,100836.72
2022-09-03T18:32:40.476Z,100859.97
2022-09-03T18:35:24.403Z,100860.91
2022-09-03T18:38:08.867Z,100841.22
2022-09-03T18:41:01.312Z,100850.88
2022-09-03T18:43:56.887Z,100860.59
2022-09-03T18:48:00.913Z,100865.03
2022-09-03T18:50:03.070Z,100845.38
2022-09-03T18:52:53.691Z,100866.19
2022-09-03T18:55:51.446Z,100873.19
2022-09-03T18:58:48.018Z,100876.69
2022-09-03T19:01:45.826Z,100878.53
2022-09-03T19:04:36.236Z,100808.88
2022-09-03T19:07:26.429Z,100879.91
2022-09-03T19:10:16.953Z,100878.53
2022-09-03T19:13:13.033Z,100886.56
2022-09-03T19:16:02.518Z,100876.38
2022-09-03T19:19:10.822Z,100848.25
2022-09-03T19:22:01.373Z,100898.72
2022-09-03T19:24:46.520Z,100900.38
2022-09-03T19:27:55.333Z,100876.47
2022-09-03T19:30:50.591Z,100894.47
2022-09-03T19:33:44.234Z,100899.00
2022-09-03T19:36:37.037Z,100898.22
2022-09-03T19:39:37.270Z,100897.47
2022-09-03T19:42:34.076Z,100889.81
2022-09-03T19:45:27.535Z,100877.97
2022-09-03T19:48:20.815Z,100914.09
2022-09-03T19:51:19.651Z,100915.72
2022-09-03T19:54:04.062Z,100893.59
2022-09-03T19:56:51.706Z,100914.28
2022-09-03T19:59:48.923Z,100913.53
2022-09-03T20:02:31.387Z,100918.91
2022-09-03T20:05:15.479Z,100919.94
2022-09-03T20:08:00.342Z,100923.56
2022-09-03T20:10:34.805Z,100909.09
2022-09-03T20:13:13.448Z,100927.09
2022-09-03T20:15:56.137Z,100913.31
2022-09-03T20:18:39.123Z,100934.06
2022-09-03T20:21:15.701Z,100917.00
2022-09-03T20:23:54.071Z,100933.34
2022-09-03T20:26:43.102Z,100925.88
2022-09-03T20:29:34.948Z,100898.63
2022-09-03T20:32:14.402Z,100934.84
2022-09-03T20:34:54.188Z,100948.56
2022-09-03T20:37:36.236Z,100961.53
2022-09-03T20:40:25.691Z,100945.41
2022-09-03T20:43:14.326Z,100942.84
2022-09-03T20:46:01.019Z,100927.47
2022-09-03T20:48:40.533Z,100965.16
2022-09-03T20:51:16.216Z,100969.53
2022-09-03T20:54:17.052Z,100936.28
2022-09-03T20:57:10.741Z,100967.94
2022-09-03T20:59:55.437Z,100976.53
2022-09-03T21:02:39.310Z,100970.59
2022-09-03T21:05:20.205Z,100984.28
2022-09-03T21:08:03.851Z,100976.53
2022-09-03T21:10:39.616Z,100972.13
2022-09-03T21:13:16.907Z,100978.31
2022-09-03T21:15:57.191Z,100986.22
2022-09-03T21:18:37.842Z,100973.50
2022-09-03T21:21:22.118Z,100975.41
2022-09-03T21:24:03.421Z,100990.75
2022-09-03T21:26:41.846Z,100978.06
2022-09-03T21:29:22.404Z,100984.16
2022-09-03T21:31:57.511Z,100954.97
2022-09-03T21:34:33.447Z,100987.47
2022-09-03T21:37:08.564Z,100985.72
2022-09-03T21:39:45.392Z,100990.81
2022-09-03T21:42:25.039Z,100986.50
2022-09-03T21:45:03.322Z,100990.88
2022-09-03T21:47:36.692Z,100978.09
2022-09-03T21:50:19.803Z,100972.13
2022-09-03T21:52:57.313Z,101003.16
2022-09-03T21:55:38.429Z,100997.94
2022-09-03T21:58:21.734Z,101003.16
2022-09-03T22:00:53.842Z,100991.25
2022-09-03T22:03:24.321Z,100952.66
2022-09-03T22:06:01.977Z,100997.41
2022-09-03T22:08:42.187Z,101012.06
2022-09-03T22:11:18.492Z,101009.53
2022-09-03T22:13:54.459Z,100994.97
2022-09-03T22:16:31.664Z,101013.00
2022-09-03T22:19:02.410Z,101010.53
2022-09-03T22:21:38.897Z,101012.28
2022-09-03T22:24:23.275Z,100965.09
2022-09-03T22:27:01.018Z,101009.72
2022-09-03T22:29:38.444Z,101014.09
2022-09-03T22:32:23.209Z,100997.78
2022-09-03T22:35:12.512Z,101012.38
2022-09-03T22:37:58.781Z,101011.53
2022-09-03T22:40:39.943Z,101007.22
2022-09-03T22:43:31.080Z,100990.03
2022-09-03T22:46:11.589Z,100984.97
2022-09-03T22:48:59.987Z,101012.47
2022-09-03T22:51:39.678Z,100997.81
2022-09-03T22:54:23.480Z,100989.31
2022-09-03T22:56:58.348Z,101006.59
2022-09-03T22:59:34.501Z,101012.53
2022-09-03T23:02:12.429Z,101016.13
2022-09-03T23:04:49.269Z,101017.88
2022-09-03T23:07:24.962Z,101021.28
2022-09-03T23:10:00.660Z,101015.41
2022-09-03T23:12:39.826Z,101018.03
2022-09-03T23:15:14.178Z,101030.97
2022-09-03T23:17:48.902Z,101027.56
2022-09-03T23:20:23.084Z,101019.81
2022-09-03T23:22:59.881Z,101040.47
2022-09-03T23:25:36.140Z,101024.16
2022-09-03T23:28:13.625Z,101037.03
2022-09-03T23:30:43.330Z,101038.75
2022-09-03T23:33:12.995Z,101031.88
2022-09-03T23:35:56.039Z,101017.25
2022-09-03T23:38:34.948Z,101029.28
2022-09-03T23:41:09.059Z,101009.56
2022-09-03T23:44:04.367Z,101021.63
2022-09-03T23:46:41.072Z,101021.66
2022-09-03T23:49:33.854Z,101015.63
2022-09-03T23:52:30.061Z,101031.09
2022-09-03T23:55:08.221Z,101031.94
2022-09-03T23:57:42.474Z,101015.63
